Time;durP1;ratioP1;P1;durP2;ratioP2;P2;SDS_P1;SDS_P2;PMS_P1;PMS_P2;Temp;Humidity;BMP_temperature;BMP_pressure;BME280_temperature;BME280_humidity;BME280_pressure;Samples;Min_cycle;Max_cycle;Signal;HPM_P1;HPM_P2
2021/04/09 00:00:39;;;;;;;0.8;0.8;;;;;;;;;;;;;
2021/04/09 00:03:11;;;;;;;2.3;0.9;;;;;;;;;;;;;
2021/04/09 00:05:36;;;;;;;0.9;0.9;;;;;;;;;;;;;
2021/04/09 00:08:02;;;;;;;0.5;0.5;;;;;;;;;;;;;
2021/04/09 00:10:30;;;;;;;1.9;0.8;;;;;;;;;;;;;
2021/04/09 00:12:57;;;;;;;3.8;0.6;;;;;;;;;;;;;
2021/04/09 00:15:24;;;;;;;0.7;0.7;;;;;;;;;;;;;
2021/04/09 00:17:49;;;;;;;1.6;1.2;;;;;;;;;;;;;
2021/04/09 00:20:32;;;;;;;0.4;0.4;;;;;;;;;;;;;
2021/04/09 00:22:57;;;;;;;1.4;0.9;;;;;;;;;;;;;
2021/04/09 00:25:22;;;;;;;1.1;0.6;;;;;;;;;;;;;
2021/04/09 00:27:47;;;;;;;0.6;0.6;;;;;;;;;;;;;
2021/04/09 00:30:17;;;;;;;0.8;0.8;;;;;;;;;;;;;
2021/04/09 00:32:38;;;;;;;1.1;0.8;;;;;;;;;;;;;
2021/04/09 00:35:21;;;;;;;2.1;0.9;;;;;;;;;;;;;
2021/04/09 00:37:31;;;;;;;1.5;0.8;;;;;;;;;;;;;
2021/04/09 00:39:57;;;;;;;2.5;1.2;;;;;;;;;;;;;
2021/04/09 00:42:22;;;;;;;0.6;0.6;;;;;;;;;;;;;
2021/04/09 00:44:47;;;;;;;0.8;0.8;;;;;;;;;;;;;
2021/04/09 00:47:12;;;;;;;2;1.4;;;;;;;;;;;;;
2021/04/09 00:49:38;;;;;;;1.8;1;;;;;;;;;;;;;
2021/04/09 00:52:03;;;;;;;1;0.9;;;;;;;;;;;;;
2021/04/09 00:54:28;;;;;;;2.5;1.1;;;;;;;;;;;;;
2021/04/09 00:56:59;;;;;;;1;0.9;;;;;;;;;;;;;
2021/04/09 00:59:48;;;;;;;1;0.9;;;;;;;;;;;;;
2021/04/09 01:02:10;;;;;;;1.6;1;;;;;;;;;;;;;
2021/04/09 01:04:36;;;;;;;0.6;0.6;;;;;;;;;;;;;
2021/04/09 01:07:02;;;;;;;2.1;1.1;;;;;;;;;;;;;
2021/04/09 01:09:29;;;;;;;10.9;1.9;;;;;;;;;;;;;
2021/04/09 01:11:54;;;;;;;3.2;1.2;;;;;;;;;;;;;
2021/04/09 01:14:19;;;;;;;0.9;0.9;;;;;;;;;;;;;
2021/04/09 01:16:46;;;;;;;1.2;0.9;;;;;;;;;;;;;
2021/04/09 01:19:11;;;;;;;0.9;0.5;;;;;;;;;;;;;
2021/04/09 01:21:36;;;;;;;1.7;1;;;;;;;;;;;;;
2021/04/09 01:24:01;;;;;;;3.1;0.7;;;;;;;;;;;;;
2021/04/09 01:26:52;;;;;;;6.5;1;;;;;;;;;;;;;
2021/04/09 01:29:17;;;;;;;2.9;1.2;;;;;;;;;;;;;
2021/04/09 01:31:42;;;;;;;1.2;1;;;;;;;;;;;;;
2021/04/09 01:34:07;;;;;;;1.3;0.7;;;;;;;;;;;;;
2021/04/09 01:36:33;;;;;;;1.2;1;;;;;;;;;;;;;
2021/04/09 01:38:58;;;;;;;1.1;0.8;;;;;;;;;;;;;
2021/04/09 01:41:24;;;;;;;2.7;1.1;;;;;;;;;;;;;
2021/04/09 01:43:49;;;;;;;0.9;0.9;;;;;;;;;;;;;
2021/04/09 01:46:15;;;;;;;4.6;1.3;;;;;;;;;;;;;
2021/04/09 01:48:40;;;;;;;2.9;1.1;;;;;;;;;;;;;
2021/04/09 01:51:06;;;;;;;4.6;1.5;;;;;;;;;;;;;
2021/04/09 01:53:31;;;;;;;1.1;0.8;;;;;;;;;;;;;
2021/04/09 01:55:57;;;;;;;0.4;0.4;;;;;;;;;;;;;
2021/04/09 01:58:23;;;;;;;1.2;1.1;;;;;;;;;;;;;
2021/04/09 02:00:48;;;;;;;0.9;0.6;;;;;;;;;;;;;
2021/04/09 02:03:13;;;;;;;0.5;0.5;;;;;;;;;;;;;
2021/04/09 02:05:40;;;;;;;1.3;1.1;;;;;;;;;;;;;
2021/04/09 02:08:05;;;;;;;1.5;0.9;;;;;;;;;;;;;
2021/04/09 02:10:33;;;;;;;0.6;0.6;;;;;;;;;;;;;
2021/04/09 02:12:58;;;;;;;1.4;0.9;;;;;;;;;;;;;
2021/04/09 02:15:25;;;;;;;2.4;1.4;;;;;;;;;;;;;
2021/04/09 02:17:50;;;;;;;0.8;0.8;;;;;;;;;;;;;
2021/04/09 02:20:15;;;;;;;1.5;1.1;;;;;;;;;;;;;
2021/04/09 02:22:41;;;;;;;1.6;0.9;;;;;;;;;;;;;
2021/04/09 02:25:06;;;;;;;1.9;1.5;;;;;;;;;;;;;
2021/04/09 02:29:56;;;;;;;2.7;1.4;;;;;;;;;;;;;
2021/04/09 02:32:21;;;;;;;1.5;1.2;;;;;;;;;;;;;
2021/04/09 02:34:46;;;;;;;1.5;1.3;;;;;;;;;;;;;
2021/04/09 02:37:11;;;;;;;0.9;0.9;;;;;;;;;;;;;
2021/04/09 02:39:37;;;;;;;1;0.9;;;;;;;;;;;;;
2021/04/09 02:42:02;;;;;;;1.9;1.2;;;;;;;;;;;;;
2021/04/09 02:44:27;;;;;;;2.3;1.3;;;;;;;;;;;;;
2021/04/09 02:46:53;;;;;;;8.8;1.3;;;;;;;;;;;;;
2021/04/09 02:49:18;;;;;;;2.7;1.7;;;;;;;;;;;;;
2021/04/09 02:51:44;;;;;;;0.8;0.8;;;;;;;;;;;;;
2021/04/09 02:54:10;;;;;;;2.8;1.6;;;;;;;;;;;;;
2021/04/09 02:56:35;;;;;;;1.3;1;;;;;;;;;;;;;
2021/04/09 02:59:00;;;;;;;0.9;0.8;;;;;;;;;;;;;
2021/04/09 03:01:25;;;;;;;1.9;0.8;;;;;;;;;;;;;
2021/04/09 03:03:50;;;;;;;0.8;0.8;;;;;;;;;;;;;
2021/04/09 03:06:35;;;;;;;0.7;0.6;;;;;;;;;;;;;
2021/04/09 03:09:00;;;;;;;1.9;1.1;;;;;;;;;;;;;
2021/04/09 03:11:25;;;;;;;1.4;0.8;;;;;;;;;;;;;
2021/04/09 03:13:52;;;;;;;1.2;0.7;;;;;;;;;;;;;
2021/04/09 03:16:17;;;;;;;0.8;0.7;;;;;;;;;;;;;
2021/04/09 03:18:44;;;;;;;1.6;1.1;;;;;;;;;;;;;
2021/04/09 03:21:09;;;;;;;3.2;1.2;;;;;;;;;;;;;
2021/04/09 03:23:35;;;;;;;0.7;0.6;;;;;;;;;;;;;
2021/04/09 03:26:00;;;;;;;0.7;0.7;;;;;;;;;;;;;
2021/04/09 03:28:26;;;;;;;0.5;0.5;;;;;;;;;;;;;
2021/04/09 03:30:51;;;;;;;0.7;0.7;;;;;;;;;;;;;
2021/04/09 03:33:18;;;;;;;0.7;0.7;;;;;;;;;;;;;
2021/04/09 03:35:42;;;;;;;11.7;1.7;;;;;;;;;;;;;
2021/04/09 03:38:08;;;;;;;4.8;1.1;;;;;;;;;;;;;
2021/04/09 03:40:33;;;;;;;5.1;1.6;;;;;;;;;;;;;
2021/04/09 03:42:59;;;;;;;2.2;1.1;;;;;;;;;;;;;
2021/04/09 03:45:25;;;;;;;1.3;0.9;;;;;;;;;;;;;
2021/04/09 03:47:51;;;;;;;1.4;1;;;;;;;;;;;;;
2021/04/09 03:50:16;;;;;;;3.6;1;;;;;;;;;;;;;
2021/04/09 03:52:42;;;;;;;2.3;1.4;;;;;;;;;;;;;
2021/04/09 03:55:07;;;;;;;0.8;0.6;;;;;;;;;;;;;
2021/04/09 03:57:34;;;;;;;7.8;0.9;;;;;;;;;;;;;
2021/04/09 03:59:59;;;;;;;3;1.3;;;;;;;;;;;;;
2021/04/09 04:02:32;;;;;;;2.2;1.4;;;;;;;-0.61;69.56543;940.8644;;;;
2021/04/09 04:04:57;;;;;;;0.6;0.6;;;;;;;-0.58;68.85938;940.8992;;;;
2021/04/09 04:07:22;;;;;;;2.2;1.3;;;;;;;-0.55;68.875;940.878;;;;
2021/04/09 04:09:47;;;;;;;1.3;1.1;;;;;;;-0.61;69.97656;940.8769;;;;
2021/04/09 04:12:12;;;;;;;0.7;0.7;;;;;;;-0.61;70.36621;940.9047;;;;
2021/04/09 04:14:38;;;;;;;2.5;1.2;;;;;;;-0.68;70.79883;940.8939;;;;
2021/04/09 04:17:03;;;;;;;0.8;0.8;;;;;;;-0.74;70.7793;940.8773;;;;
2021/04/09 04:19:29;;;;;;;1.3;1;;;;;;;-0.7;70.8291;940.9594;;;;
2021/04/09 04:21:54;;;;;;;1.1;1;;;;;;;-0.64;70.10449;940.9665;;;;
2021/04/09 04:24:22;;;;;;;1.2;0.9;;;;;;;-0.62;69.88672;940.9335;;;;
2021/04/09 04:26:47;;;;;;;1;0.9;;;;;;;-0.7;70.45117;940.9531;;;;
2021/04/09 04:29:12;;;;;;;3.2;0.8;;;;;;;-0.71;70.61621;940.9704;;;;
2021/04/09 04:31:37;;;;;;;3;1;;;;;;;-0.74;71.01074;940.9249;;;;
2021/04/09 04:34:04;;;;;;;1;0.9;;;;;;;-0.75;70.97559;940.9294;;;;
2021/04/09 04:36:29;;;;;;;0.8;0.8;;;;;;;-0.68;70.74316;941.0002;;;;
2021/04/09 04:38:55;;;;;;;1.6;1.2;;;;;;;-0.63;70.0625;941.0149;;;;
2021/04/09 04:41:20;;;;;;;1.7;1.2;;;;;;;-0.48;69.8418;940.9504;;;;
2021/04/09 04:43:46;;;;;;;1.3;0.9;;;;;;;-0.5;69.5498;940.9619;;;;
2021/04/09 04:46:11;;;;;;;1.3;1;;;;;;;-0.43;69.2168;941.0486;;;;
2021/04/09 04:48:38;;;;;;;2.4;1;;;;;;;-0.51;69.51465;941.0044;;;;
2021/04/09 04:51:03;;;;;;;6.2;1.7;;;;;;;-0.47;69.5332;940.985;;;;
2021/04/09 04:53:29;;;;;;;1.7;1.5;;;;;;;-0.51;69.91602;940.9997;;;;
2021/04/09 04:55:54;;;;;;;1.7;0.9;;;;;;;-0.56;69.8418;941.0316;;;;
2021/04/09 04:58:20;;;;;;;1.6;1.2;;;;;;;-0.57;70.10547;940.988;;;;
2021/04/09 05:00:46;;;;;;;2.9;0.8;;;;;;;-0.49;69.90918;941.0308;;;;
2021/04/09 05:03:12;;;;;;;1.4;0.9;;;;;;;-0.28;69.47559;941.0862;;;;
2021/04/09 05:05:37;;;;;;;1.2;1;;;;;;;-0.27;69.98926;941.1275;;;;
2021/04/09 05:08:03;;;;;;;1.6;1.5;;;;;;;-0.24;69.74902;941.1169;;;;
2021/04/09 05:10:28;;;;;;;1.1;1;;;;;;;-0.2;69.35449;941.1019;;;;
2021/04/09 05:12:54;;;;;;;1.1;1;;;;;;;-0.08;68.7959;941.1128;;;;
2021/04/09 05:15:19;;;;;;;8.9;1.4;;;;;;;-0.01;68.4834;941.1057;;;;
2021/04/09 05:17:44;;;;;;;1.4;1;;;;;;;0;68.27441;941.0502;;;;
2021/04/09 05:20:10;;;;;;;2.9;1.4;;;;;;;0.07;67.97266;940.9988;;;;
2021/04/09 05:22:35;;;;;;;1;0.8;;;;;;;0.18;67.80176;941.0736;;;;
2021/04/09 05:25:00;;;;;;;1.2;0.9;;;;;;;0.24;67.47656;941.0449;;;;
2021/04/09 05:27:26;;;;;;;9.8;1.4;;;;;;;0.4;67.04492;941.0363;;;;
2021/04/09 05:29:51;;;;;;;2.8;1.1;;;;;;;0.39;67.7793;941.0292;;;;
2021/04/09 05:32:17;;;;;;;1.9;0.9;;;;;;;0.39;67.43359;940.9644;;;;
2021/04/09 05:34:42;;;;;;;3.6;1;;;;;;;0.52;70.03027;941.0519;;;;
2021/04/09 05:37:09;;;;;;;2.4;1.3;;;;;;;0.61;66.9668;941.0466;;;;
2021/04/09 05:39:34;;;;;;;2.4;1.2;;;;;;;0.57;66.12402;941.0474;;;;
2021/04/09 05:41:59;;;;;;;0.8;0.8;;;;;;;0.85;66.30078;941.0131;;;;
2021/04/09 05:44:24;;;;;;;3.9;1.2;;;;;;;1.78;64.12109;940.9447;;;;
2021/04/09 05:46:52;;;;;;;0.7;0.7;;;;;;;3.11;59.3623;940.9381;;;;
2021/04/09 05:49:16;;;;;;;1.9;0.9;;;;;;;4.15;55.38867;940.7921;;;;
2021/04/09 05:51:42;;;;;;;2.1;0.8;;;;;;;5.08;52.7041;940.8692;;;;
2021/04/09 05:55:08;;;;;;;0.9;0.8;;;;;;;5.9;49.39355;940.7068;;;;
2021/04/09 05:57:32;;;;;;;10;5.4;;;;;;;5.55;49.47656;940.853;;;;
2021/04/09 05:59:57;;;;;;;2.3;1.5;;;;;;;5.23;48.24512;940.7453;;;;
2021/04/09 06:02:23;;;;;;;4.1;2.1;;;;;;;5.51;48.98828;940.7712;;;;
2021/04/09 06:04:49;;;;;;;5.1;2.1;;;;;;;6.22;47.14746;940.7377;;;;
2021/04/09 06:07:14;;;;;;;3;1.9;;;;;;;6.21;46.37793;940.7264;;;;
2021/04/09 06:09:40;;;;;;;5.6;1.9;;;;;;;6.59;46.59961;940.7441;;;;
2021/04/09 06:12:06;;;;;;;7.8;1.9;;;;;;;7.01;45.1748;940.7502;;;;
2021/04/09 06:14:31;;;;;;;1.3;1;;;;;;;7.3;42.37109;940.7539;;;;
2021/04/09 06:16:56;;;;;;;3;1.3;;;;;;;7.31;41.71582;940.6885;;;;
2021/04/09 06:19:23;;;;;;;2.9;1.7;;;;;;;8.34;40.90527;940.7009;;;;
2021/04/09 06:21:48;;;;;;;8.2;1.4;;;;;;;9.16;39.57227;940.608;;;;
2021/04/09 06:24:13;;;;;;;7.5;1.4;;;;;;;8.9;39.16211;940.6655;;;;
2021/04/09 06:26:38;;;;;;;1;0.7;;;;;;;9.6;38.33594;940.5669;;;;
2021/04/09 06:29:03;;;;;;;2.3;1.2;;;;;;;9.11;39.78418;940.6293;;;;
2021/04/09 06:31:28;;;;;;;1.3;1.1;;;;;;;9.93;38.60547;940.5911;;;;
2021/04/09 06:33:54;;;;;;;1.4;1.3;;;;;;;9.83;37.83301;940.4695;;;;
2021/04/09 06:36:20;;;;;;;15.2;1.4;;;;;;;10.84;36.40234;940.5815;;;;
2021/04/09 06:38:45;;;;;;;1.8;0.9;;;;;;;10.58;35.25;940.5051;;;;
2021/04/09 06:41:10;;;;;;;1.4;0.7;;;;;;;10.3;36.15137;940.4941;;;;
2021/04/09 06:43:35;;;;;;;0.9;0.7;;;;;;;9.22;36.9375;940.5045;;;;
2021/04/09 06:46:02;;;;;;;1.7;0.3;;;;;;;9.39;37.06543;940.5305;;;;
2021/04/09 06:48:27;;;;;;;2.3;1.1;;;;;;;9.52;35.69824;940.4846;;;;
2021/04/09 06:50:53;;;;;;;3.8;1.5;;;;;;;9.3;35.04297;940.4678;;;;
2021/04/09 06:53:18;;;;;;;3.7;1.2;;;;;;;10.29;32.11035;940.3856;;;;
2021/04/09 06:55:47;;;;;;;1;0.7;;;;;;;10.91;32.63672;940.3688;;;;
2021/04/09 06:58:11;;;;;;;0.7;0.6;;;;;;;11.63;31.67188;940.3188;;;;
2021/04/09 07:00:38;;;;;;;2.9;1;;;;;;;12.05;30.88965;940.3007;;;;
2021/04/09 07:03:04;;;;;;;3.3;1.8;;;;;;;11.44;31.36035;940.2659;;;;
2021/04/09 07:05:29;;;;;;;2.6;1.2;;;;;;;11.35;29.64941;940.2711;;;;
2021/04/09 07:07:54;;;;;;;0.5;0.5;;;;;;;11.7;29.8457;940.2317;;;;
2021/04/09 07:10:22;;;;;;;5.1;0.7;;;;;;;13.05;29.43359;940.1409;;;;
2021/04/09 07:12:47;;;;;;;2.9;0.8;;;;;;;13.62;28.65527;940.0542;;;;
2021/04/09 07:15:12;;;;;;;0.5;0.3;;;;;;;13.82;24.6875;940.0778;;;;
2021/04/09 07:17:37;;;;;;;6.6;0.5;;;;;;;13.81;25.29688;940.0496;;;;
2021/04/09 07:20:06;;;;;;;0.5;0.4;;;;;;;14.48;25.30176;940.0244;;;;
2021/04/09 07:22:32;;;;;;;0.9;0.2;;;;;;;15.48;22.94531;939.9658;;;;
2021/04/09 07:24:58;;;;;;;0.1;0.1;;;;;;;15.4;23.58789;939.9949;;;;
2021/04/09 07:27:23;;;;;;;0.6;0.4;;;;;;;16.06;23.0918;939.9697;;;;
2021/04/09 07:29:48;;;;;;;0.3;0.3;;;;;;;15.43;22.44629;939.991;;;;
2021/04/09 07:32:41;;;;;;;0.1;0.1;;;;;;;14.14;23.45117;939.9377;;;;
2021/04/09 07:35:07;;;;;;;6.1;0.2;;;;;;;15.7;23.25781;939.9728;;;;
2021/04/09 07:37:32;;;;;;;0.8;0.3;;;;;;;16.08;21.84473;939.8465;;;;
2021/04/09 07:40:17;;;;;;;5.4;1;;;;;;;17.93;20.76367;939.7947;;;;
2021/04/09 07:42:42;;;;;;;0.1;0.1;;;;;;;17.54;19.90918;939.8386;;;;
2021/04/09 07:45:10;;;;;;;0.3;0.2;;;;;;;18.42;19.98438;939.8314;;;;
2021/04/09 07:47:35;;;;;;;0.3;0.2;;;;;;;20.26;20.40625;939.759;;;;
2021/04/09 07:50:00;;;;;;;1.1;0.5;;;;;;;20.79;18.71289;939.7418;;;;
2021/04/09 07:52:26;;;;;;;0.9;0.7;;;;;;;20.66;18.24023;939.6708;;;;
2021/04/09 07:54:50;;;;;;;0.9;0.5;;;;;;;20.86;17.85059;939.7126;;;;
2021/04/09 07:57:15;;;;;;;0.6;0.3;;;;;;;20.6;17.67676;939.6511;;;;
2021/04/09 07:59:41;;;;;;;1.2;0.6;;;;;;;20.64;17.59668;939.6406;;;;
2021/04/09 08:02:05;;;;;;;0.2;0.2;;;;;;;19.47;18.30762;939.6859;;;;
2021/04/09 08:04:33;;;;;;;0.2;0.2;;;;;;;21.19;17.53613;939.65;;;;
2021/04/09 08:07:24;;;;;;;0.2;0.2;;;;;;;20.1;17.90137;939.5655;;;;
2021/04/09 08:09:49;;;;;;;1.8;0.4;;;;;;;22.64;17.12402;939.5553;;;;
2021/04/09 08:12:14;;;;;;;0.2;0.2;;;;;;;21.76;16.04785;939.5503;;;;
2021/04/09 08:14:39;;;;;;;0.1;0.1;;;;;;;23.01;14.58984;939.5352;;;;
2021/04/09 08:17:05;;;;;;;0.6;0.4;;;;;;;25.43;13.57031;939.4814;;;;
2021/04/09 08:19:30;;;;;;;0;0;;;;;;;22.31;13.89844;939.4402;;;;
2021/04/09 08:21:56;;;;;;;1;0.6;;;;;;;22.47;16.1084;939.444;;;;
2021/04/09 08:24:21;;;;;;;0.3;0.1;;;;;;;22.45;15.2168;939.4171;;;;
2021/04/09 08:26:46;;;;;;;0.7;0.2;;;;;;;23.04;16.37598;939.384;;;;
2021/04/09 08:29:13;;;;;;;0.4;0.3;;;;;;;22.36;14.16895;939.4295;;;;
2021/04/09 08:31:38;;;;;;;1.1;0.5;;;;;;;20.49;15.97852;939.4559;;;;
2021/04/09 08:34:05;;;;;;;10.1;0.6;;;;;;;20.55;18.09473;939.4267;;;;
2021/04/09 08:36:30;;;;;;;1.4;0.4;;;;;;;23.25;15.10254;939.4102;;;;
2021/04/09 08:38:57;;;;;;;0.2;0.2;;;;;;;20.81;14.36523;939.3446;;;;
2021/04/09 08:41:22;;;;;;;0.8;0.5;;;;;;;20.43;15.85938;939.3385;;;;
2021/04/09 08:43:49;;;;;;;1.2;0.3;;;;;;;22.71;16.35156;939.3937;;;;
2021/04/09 08:46:14;;;;;;;0.2;0.2;;;;;;;22.42;14.91016;939.3425;;;;
2021/04/09 08:48:42;;;;;;;1.1;0.2;;;;;;;21.69;15.83496;939.2858;;;;
2021/04/09 08:51:07;;;;;;;0.4;0.3;;;;;;;21.5;16.86914;939.2333;;;;
2021/04/09 08:53:32;;;;;;;0.8;0.2;;;;;;;23.4;16.95313;939.2932;;;;
2021/04/09 08:55:58;;;;;;;0.6;0.3;;;;;;;22.06;16.35156;939.1969;;;;
2021/04/09 08:58:23;;;;;;;0.3;0.3;;;;;;;22.06;17.53516;939.197;;;;
2021/04/09 09:00:49;;;;;;;0.6;0.4;;;;;;;21.35;16.77051;939.1946;;;;
2021/04/09 09:03:14;;;;;;;0.5;0.3;;;;;;;20.96;18.1582;939.1674;;;;
2021/04/09 09:05:41;;;;;;;2.2;0.1;;;;;;;20.04;16.40527;939.1992;;;;
2021/04/09 09:08:07;;;;;;;1.9;0.4;;;;;;;20.02;18.77344;939.1721;;;;
2021/04/09 09:10:33;;;;;;;0.9;0.2;;;;;;;20.07;18.81055;939.1135;;;;
2021/04/09 09:12:58;;;;;;;0.1;0.1;;;;;;;18.17;19.25195;939.1284;;;;
2021/04/09 09:15:24;;;;;;;0.4;0.4;;;;;;;19.45;18.52832;939.0983;;;;
2021/04/09 09:17:49;;;;;;;0.4;0.1;;;;;;;19.1;19.85254;939.0339;;;;
2021/04/09 09:20:17;;;;;;;0.1;0.1;;;;;;;18.69;19.08984;939.0193;;;;
2021/04/09 09:22:41;;;;;;;1.6;0.3;;;;;;;18.92;20.84473;938.9763;;;;
2021/04/09 09:25:06;;;;;;;0.1;0.1;;;;;;;20.12;16.61816;938.9141;;;;
2021/04/09 09:27:31;;;;;;;0.3;0.2;;;;;;;19.92;17.32324;938.9675;;;;
2021/04/09 09:29:56;;;;;;;0.1;0.1;;;;;;;20.84;16.5293;938.9005;;;;
2021/04/09 09:32:23;;;;;;;0.2;0.1;;;;;;;21.17;15.125;938.8716;;;;
2021/04/09 09:34:48;;;;;;;0.3;0.3;;;;;;;21.65;18.72559;938.7442;;;;
2021/04/09 09:37:14;;;;;;;0.3;0.2;;;;;;;23.26;15.62012;938.7224;;;;
2021/04/09 09:39:39;;;;;;;0.9;0.7;;;;;;;23.37;16.7998;938.692;;;;
2021/04/09 09:42:04;;;;;;;0.2;0.2;;;;;;;23.72;15.22461;938.6884;;;;
2021/04/09 09:44:32;;;;;;;0.4;0.2;;;;;;;24.47;14.05957;938.616;;;;
2021/04/09 09:46:57;;;;;;;0.1;0.1;;;;;;;22.95;16.87793;938.5563;;;;
2021/04/09 09:49:22;;;;;;;0.9;0.3;;;;;;;21.95;18.03516;938.4969;;;;
2021/04/09 09:51:47;;;;;;;0.9;0.2;;;;;;;21.73;16.76074;938.4846;;;;
2021/04/09 09:54:12;;;;;;;0.6;0.3;;;;;;;22.7;16.75098;938.483;;;;
2021/04/09 09:56:37;;;;;;;0.3;0.2;;;;;;;22.03;17.56934;938.4327;;;;
2021/04/09 09:59:02;;;;;;;1.1;0.4;;;;;;;21.34;18.02246;938.4319;;;;
2021/04/09 10:01:27;;;;;;;0.1;0.1;;;;;;;21.29;17.56348;938.338;;;;
2021/04/09 10:04:15;;;;;;;0.8;0.2;;;;;;;21.42;17.69727;938.2697;;;;
2021/04/09 10:06:45;;;;;;;0.4;0.3;;;;;;;22.09;17.93457;938.2422;;;;
2021/04/09 10:09:06;;;;;;;0.2;0.2;;;;;;;21.93;16.76953;938.2242;;;;
2021/04/09 10:11:31;;;;;;;0.2;0.2;;;;;;;22.36;16.38672;938.197;;;;
2021/04/09 10:13:56;;;;;;;0.9;0.4;;;;;;;21.99;17.67383;938.1908;;;;
2021/04/09 10:16:21;;;;;;;0.1;0.1;;;;;;;21.75;16.48047;938.1217;;;;
2021/04/09 10:18:50;;;;;;;1.8;0.3;;;;;;;20.96;18.2168;938.0898;;;;
2021/04/09 10:21:13;;;;;;;0.2;0;;;;;;;20.76;17.63574;938.0009;;;;
2021/04/09 10:23:38;;;;;;;0.1;0.1;;;;;;;21.07;18.37305;938.0803;;;;
2021/04/09 10:26:03;;;;;;;1.2;0.2;;;;;;;21.85;15.77051;938.0349;;;;
2021/04/09 10:28:28;;;;;;;0.5;0.2;;;;;;;22.21;17.72852;937.9955;;;;
2021/04/09 10:30:55;;;;;;;0.8;0.4;;;;;;;22.22;16.83789;938.0364;;;;
2021/04/09 10:33:20;;;;;;;3.8;0.2;;;;;;;22.89;16.38184;937.9398;;;;
2021/04/09 10:35:45;;;;;;;0.2;0.2;;;;;;;22.77;15.36816;937.8438;;;;
2021/04/09 10:38:10;;;;;;;0.2;0.2;;;;;;;22.13;15.86133;937.8279;;;;
2021/04/09 10:40:35;;;;;;;0.2;0.2;;;;;;;23.42;15.84863;937.8797;;;;
2021/04/09 10:43:01;;;;;;;4.1;0.3;;;;;;;23.74;15.18945;937.8283;;;;
2021/04/09 10:45:26;;;;;;;0.1;0.1;;;;;;;24.29;14.13672;937.7885;;;;
2021/04/09 10:47:51;;;;;;;11;0.3;;;;;;;24.19;13.21484;937.728;;;;
2021/04/09 10:50:16;;;;;;;1.3;0.4;;;;;;;24.54;13.96777;937.6513;;;;
2021/04/09 10:52:42;;;;;;;0.8;0.6;;;;;;;25.6;12.57129;937.6553;;;;
2021/04/09 10:55:07;;;;;;;0.2;0.2;;;;;;;24.9;14.52148;937.5642;;;;
2021/04/09 10:57:33;;;;;;;0.6;0.3;;;;;;;23.06;15.77734;937.5442;;;;
2021/04/09 10:59:58;;;;;;;0.3;0.2;;;;;;;22.64;16.36133;937.5681;;;;
2021/04/09 11:02:24;;;;;;;0.3;0.2;;;;;;;23.07;16.15332;937.488;;;;
2021/04/09 11:04:50;;;;;;;8.3;0.3;;;;;;;23.67;16.45801;937.5228;;;;
2021/04/09 11:07:15;;;;;;;1.4;0.7;;;;;;;22.16;15.14746;937.4324;;;;
2021/04/09 11:09:42;;;;;;;1;0.4;;;;;;;21.29;17.00195;937.3975;;;;
2021/04/09 11:12:07;;;;;;;0.6;0.4;;;;;;;21.07;18.02246;937.3523;;;;
2021/04/09 11:14:32;;;;;;;0.8;0.5;;;;;;;22.26;16.08887;937.4131;;;;
2021/04/09 11:16:57;;;;;;;1.1;0.3;;;;;;;23.28;14.95117;937.2833;;;;
2021/04/09 11:19:24;;;;;;;4.2;0.5;;;;;;;22.74;14.47461;937.3522;;;;
2021/04/09 11:21:49;;;;;;;0.2;0.1;;;;;;;23.14;15.06348;937.2148;;;;
2021/04/09 11:24:19;;;;;;;0.4;0.1;;;;;;;22.2;16.36816;937.255;;;;
2021/04/09 11:26:54;;;;;;;2.5;0.4;;;;;;;22.54;17.22559;937.152;;;;
2021/04/09 11:29:13;;;;;;;0.3;0.2;;;;;;;21.94;18.58594;937.1278;;;;
2021/04/09 11:31:38;;;;;;;0.6;0.3;;;;;;;21.1;16.91309;937.1035;;;;
2021/04/09 11:34:05;;;;;;;1.6;0.4;;;;;;;21.32;16.97949;937.0619;;;;
2021/04/09 11:38:16;;;;;;;0;0;;;;;;;20.5;17.50879;936.9948;;;;
2021/04/09 11:40:41;;;;;;;0.3;0.3;;;;;;;20.42;18.91895;937.0575;;;;
2021/04/09 11:43:06;;;;;;;0.1;0.1;;;;;;;21.27;17.55078;937.0363;;;;
2021/04/09 11:45:31;;;;;;;4.2;0.6;;;;;;;21.73;18.06055;936.926;;;;
2021/04/09 11:47:58;;;;;;;0.2;0.1;;;;;;;20.88;18.27246;936.967;;;;
2021/04/09 11:50:23;;;;;;;0.3;0.2;;;;;;;20.84;17.76758;936.8552;;;;
2021/04/09 11:52:50;;;;;;;0.3;0.1;;;;;;;20.74;19.22461;936.8765;;;;
2021/04/09 11:55:15;;;;;;;0.1;0.1;;;;;;;20.88;17.24316;936.8635;;;;
2021/04/09 11:57:40;;;;;;;0.5;0.2;;;;;;;21.93;16.83887;936.7966;;;;
2021/04/09 12:00:07;;;;;;;0.1;0.1;;;;;;;22.37;16.07031;936.8164;;;;
2021/04/09 12:02:33;;;;;;;0.3;0.2;;;;;;;22.64;14.70605;936.7629;;;;
2021/04/09 12:04:58;;;;;;;0.4;0.3;;;;;;;22.58;15.62012;936.7397;;;;
2021/04/09 12:07:23;;;;;;;3.1;0.3;;;;;;;22.78;15.18066;936.7456;;;;
2021/04/09 12:09:48;;;;;;;1.7;0.4;;;;;;;22.93;17.27637;936.7227;;;;
2021/04/09 12:12:13;;;;;;;0.5;0.3;;;;;;;22.73;16.63477;936.6431;;;;
2021/04/09 12:14:38;;;;;;;2;0.3;;;;;;;21.72;15.36719;936.6286;;;;
2021/04/09 12:17:04;;;;;;;0.2;0.2;;;;;;;21.19;16.00391;936.6268;;;;
2021/04/09 12:19:29;;;;;;;0.2;0.2;;;;;;;21.28;17.23535;936.6503;;;;
2021/04/09 12:21:56;;;;;;;1.8;0.4;;;;;;;21.26;15.85449;936.6031;;;;
2021/04/09 12:24:22;;;;;;;0.2;0.2;;;;;;;21.48;16.61133;936.5746;;;;
2021/04/09 12:26:48;;;;;;;0.5;0.4;;;;;;;21.66;16.7002;936.5676;;;;
2021/04/09 12:29:13;;;;;;;3.4;0.4;;;;;;;21.57;17.39941;936.5683;;;;
2021/04/09 12:31:39;;;;;;;0.2;0.1;;;;;;;22.02;14.27539;936.5783;;;;
2021/04/09 12:34:04;;;;;;;0.4;0.4;;;;;;;22;14.73145;936.5385;;;;
2021/04/09 12:36:30;;;;;;;0.6;0.3;;;;;;;21.53;16.05078;936.5688;;;;
2021/04/09 12:38:55;;;;;;;1.3;0.3;;;;;;;21.48;15.97949;936.5267;;;;
2021/04/09 12:41:22;;;;;;;0.2;0.1;;;;;;;21.42;15.66113;936.497;;;;
2021/04/09 12:43:49;;;;;;;0.5;0.1;;;;;;;21.46;15.65039;936.4781;;;;
2021/04/09 12:46:14;;;;;;;0.6;0.4;;;;;;;21.35;15.86914;936.4422;;;;
2021/04/09 12:48:39;;;;;;;0.6;0.3;;;;;;;21;14.96777;936.4214;;;;
2021/04/09 12:51:04;;;;;;;0.3;0.2;;;;;;;21.03;17.98633;936.3997;;;;
2021/04/09 12:53:29;;;;;;;0.3;0.1;;;;;;;21.32;16.32422;936.4025;;;;
2021/04/09 12:55:55;;;;;;;1.1;0.6;;;;;;;21.78;17.09082;936.3195;;;;
2021/04/09 12:58:21;;;;;;;0.5;0.4;;;;;;;21.67;15.21289;936.307;;;;
2021/04/09 13:00:47;;;;;;;0.2;0.2;;;;;;;21.39;17.00586;936.3214;;;;
2021/04/09 13:03:12;;;;;;;0.2;0.1;;;;;;;20.99;17.46973;936.3117;;;;
2021/04/09 13:05:38;;;;;;;0.6;0.2;;;;;;;20.8;17.84863;936.3155;;;;
2021/04/09 13:08:03;;;;;;;0.5;0.4;;;;;;;21.16;17.34766;936.2537;;;;
2021/04/09 13:10:28;;;;;;;0.3;0.3;;;;;;;21.68;16.4082;936.2963;;;;
2021/04/09 13:12:53;;;;;;;2.1;0.4;;;;;;;21.57;15.20898;936.2724;;;;
2021/04/09 13:15:18;;;;;;;1.4;0.4;;;;;;;21.82;17.0459;936.2645;;;;
2021/04/09 13:17:43;;;;;;;0.1;0.1;;;;;;;21.33;16.06738;936.3105;;;;
2021/04/09 13:20:08;;;;;;;0.2;0.1;;;;;;;21.04;15.58887;936.3372;;;;
2021/04/09 13:22:33;;;;;;;0.4;0.1;;;;;;;21;15.92676;936.3957;;;;
2021/04/09 13:24:58;;;;;;;0.4;0.3;;;;;;;21.27;17.04785;936.2755;;;;
2021/04/09 13:27:24;;;;;;;0.2;0.2;;;;;;;21.59;17.84473;936.2182;;;;
2021/04/09 13:29:49;;;;;;;0.3;0.3;;;;;;;21.59;19.14453;936.2198;;;;
2021/04/09 13:32:14;;;;;;;0.5;0.2;;;;;;;21.84;17.69043;936.1594;;;;
2021/04/09 13:34:42;;;;;;;1;0.3;;;;;;;21.69;15.91602;936.0513;;;;
2021/04/09 13:37:07;;;;;;;0.3;0.3;;;;;;;21.32;15.39941;935.9807;;;;
2021/04/09 13:39:32;;;;;;;1.4;0.7;;;;;;;20.89;17.46582;935.9994;;;;
2021/04/09 13:41:57;;;;;;;0.2;0.2;;;;;;;20.42;15.49707;935.948;;;;
2021/04/09 13:44:23;;;;;;;0.8;0.4;;;;;;;20.18;16.65625;935.8876;;;;
2021/04/09 13:46:48;;;;;;;0.2;0.2;;;;;;;20.59;18.58789;935.9175;;;;
2021/04/09 13:49:14;;;;;;;0.2;0.1;;;;;;;21.18;17.11426;935.9792;;;;
2021/04/09 13:51:39;;;;;;;0.6;0.4;;;;;;;21.26;19.31738;935.9196;;;;
2021/04/09 13:54:04;;;;;;;0.3;0.3;;;;;;;21.42;17.62695;935.8603;;;;
2021/04/09 13:56:29;;;;;;;0.3;0.2;;;;;;;21.18;16.7168;935.7961;;;;
2021/04/09 13:58:56;;;;;;;0.6;0.4;;;;;;;21.03;18.41895;935.7683;;;;
2021/04/09 14:01:21;;;;;;;0.9;0.2;;;;;;;20.64;19.23242;935.7081;;;;
2021/04/09 14:03:48;;;;;;;0.7;0.1;;;;;;;20.74;20.65137;935.7266;;;;
2021/04/09 14:06:13;;;;;;;0.1;0.1;;;;;;;20.95;19.11719;935.7617;;;;
2021/04/09 14:08:39;;;;;;;0.3;0.2;;;;;;;21.06;19.71875;935.8555;;;;
2021/04/09 14:11:04;;;;;;;1.6;0.4;;;;;;;20.77;19.96289;935.8972;;;;
2021/04/09 14:13:30;;;;;;;0.3;0.2;;;;;;;20.49;20.97754;935.9456;;;;
2021/04/09 14:16:00;;;;;;;0.7;0.4;;;;;;;20.24;20.41699;935.9889;;;;
2021/04/09 14:18:25;;;;;;;0.3;0.3;;;;;;;20.19;20.84668;935.9877;;;;
2021/04/09 14:20:50;;;;;;;0.7;0.4;;;;;;;20.13;22.08105;936.0397;;;;
2021/04/09 14:23:15;;;;;;;0.1;0.1;;;;;;;19.69;23.88965;936.0708;;;;
2021/04/09 14:25:40;;;;;;;0.2;0.1;;;;;;;19.42;23.77051;936.128;;;;
2021/04/09 14:28:06;;;;;;;0.1;0.1;;;;;;;19.36;24.69922;936.1462;;;;
2021/04/09 14:30:31;;;;;;;0.1;0.1;;;;;;;19.31;24.40527;936.2551;;;;
2021/04/09 14:32:57;;;;;;;0;0;;;;;;;19.54;22.63379;936.1702;;;;
2021/04/09 14:35:23;;;;;;;0.2;0.2;;;;;;;19.5;23.05176;936.2156;;;;
2021/04/09 14:37:49;;;;;;;0.9;0.6;;;;;;;19.04;22.71387;936.0547;;;;
2021/04/09 14:40:14;;;;;;;7.8;3.3;;;;;;;18.74;20.65039;935.8336;;;;
2021/04/09 14:42:47;;;;;;;0.4;0.3;;;;;;;18.22;19.33594;935.5999;;;;
2021/04/09 14:45:10;;;;;;;6.8;0.3;;;;;;;18.14;21.29688;935.603;;;;
2021/04/09 14:47:37;;;;;;;0.2;0.1;;;;;;;17.79;20.79199;935.6533;;;;
2021/04/09 14:50:02;;;;;;;0.7;0.3;;;;;;;18.11;22.36328;935.715;;;;
2021/04/09 14:52:27;;;;;;;1.3;0.5;;;;;;;18.29;22.58203;935.6609;;;;
2021/04/09 14:54:52;;;;;;;0.5;0.3;;;;;;;18.32;23.58301;935.603;;;;
2021/04/09 14:57:18;;;;;;;0.3;0.1;;;;;;;17.64;24.41699;935.6289;;;;
2021/04/09 14:59:43;;;;;;;0.3;0.3;;;;;;;17.36;24.44824;935.6423;;;;
2021/04/09 15:02:09;;;;;;;0.2;0.2;;;;;;;17.37;24.1123;935.5536;;;;
2021/04/09 15:04:34;;;;;;;0.7;0.6;;;;;;;17.66;24.63867;935.6269;;;;
2021/04/09 15:07:03;;;;;;;4.2;0.6;;;;;;;17.6;22.84766;935.6811;;;;
2021/04/09 15:09:28;;;;;;;0.3;0.3;;;;;;;17.65;23.41895;935.6859;;;;
2021/04/09 15:11:53;;;;;;;0.1;0.1;;;;;;;18.01;22.32324;935.688;;;;
2021/04/09 15:14:18;;;;;;;0.2;0.2;;;;;;;18.21;22.60059;935.6691;;;;
2021/04/09 15:16:43;;;;;;;3.4;0.6;;;;;;;18.34;21.25977;935.546;;;;
2021/04/09 15:19:10;;;;;;;0.2;0.2;;;;;;;18.12;23.14258;935.427;;;;
2021/04/09 15:21:35;;;;;;;0.7;0.2;;;;;;;17.98;22.87988;935.4285;;;;
2021/04/09 15:24:06;;;;;;;0.8;0.5;;;;;;;17.92;22.0752;935.4814;;;;
2021/04/09 15:26:33;;;;;;;0.2;0.2;;;;;;;17.75;24.84082;935.4408;;;;
2021/04/09 15:28:58;;;;;;;0.5;0.3;;;;;;;18.01;25.64648;935.4261;;;;
2021/04/09 15:31:23;;;;;;;0.2;0.2;;;;;;;18.19;26.85254;935.4246;;;;
2021/04/09 15:33:49;;;;;;;0.2;0.2;;;;;;;18.17;26.29395;935.4048;;;;
2021/04/09 15:36:15;;;;;;;0.2;0.2;;;;;;;18.21;26.05176;935.3564;;;;